Piedras Blancas, Argentina
Current Conditions -  °F | °C
As of 5:00 AM on Sunday 21 Dec 2014 (Local Time) from SUSO Reporting Station
Thunderstorm Thunderstorm  
Wind Chill: 66°   Ceiling: 700
Heat Index: 66°   Visibility: 4mi
Dew Point: 64°   Wind: 9mph
Humidity: 94%   Direction: 60°ENE
Pressure: 29.59"   Gusts: NA
Location:  31.18°S, 59.93°W
Report Text: SUSO 210800Z 06008KT 6000 TSRA BKN007 FEW047CB 19/18 Q1002
Loading
Personal Weather Stations






























Interactive Weather Map New forecast layout! Learn more

10-Day Weather Forecast

Advertisements
Track Severe Weather on mobile